sensor_id;sensor_type;location;lat;lon;timestamp;temperature;humidity
51567;DHT22;37657;53.182;5.638;2023-11-18T00:01:34;3.30;99.90
51567;DHT22;37657;53.182;5.638;2023-11-18T00:04:00;3.80;99.90
51567;DHT22;37657;53.182;5.638;2023-11-18T00:06:26;3.30;99.90
51567;DHT22;37657;53.182;5.638;2023-11-18T00:08:52;3.90;99.90
51567;DHT22;37657;53.182;5.638;2023-11-18T00:11:17;3.60;99.90
51567;DHT22;37657;53.182;5.638;2023-11-18T00:13:44;3.40;99.90
51567;DHT22;37657;53.182;5.638;2023-11-18T00:16:10;3.60;99.90
51567;DHT22;37657;53.182;5.638;2023-11-18T00:18:41;4.00;99.90
51567;DHT22;37657;53.182;5.638;2023-11-18T00:21:07;3.40;99.90
51567;DHT22;37657;53.182;5.638;2023-11-18T00:23:33;3.80;99.90
51567;DHT22;37657;53.182;5.638;2023-11-18T00:25:59;3.90;99.90
51567;DHT22;37657;53.182;5.638;2023-11-18T00:28:24;3.70;99.90
51567;DHT22;37657;53.182;5.638;2023-11-18T00:30:50;3.50;99.90
51567;DHT22;37657;53.182;5.638;2023-11-18T00:33:16;3.40;99.90
51567;DHT22;37657;53.182;5.638;2023-11-18T00:35:41;3.90;99.90
51567;DHT22;37657;53.182;5.638;2023-11-18T00:38:08;3.40;99.90
51567;DHT22;37657;53.182;5.638;2023-11-18T00:40:33;3.90;99.90
51567;DHT22;37657;53.182;5.638;2023-11-18T00:42:59;3.40;99.90
51567;DHT22;37657;53.182;5.638;2023-11-18T00:45:24;3.70;99.90
51567;DHT22;37657;53.182;5.638;2023-11-18T00:47:50;3.70;99.90
51567;DHT22;37657;53.182;5.638;2023-11-18T00:50:16;3.40;99.90
51567;DHT22;37657;53.182;5.638;2023-11-18T00:52:42;3.60;99.90
51567;DHT22;37657;53.182;5.638;2023-11-18T00:55:08;3.60;99.90
51567;DHT22;37657;53.182;5.638;2023-11-18T00:57:35;3.30;99.90
51567;DHT22;37657;53.182;5.638;2023-11-18T01:00:01;3.20;99.90
51567;DHT22;37657;53.182;5.638;2023-11-18T01:02:26;3.30;99.90
51567;DHT22;37657;53.182;5.638;2023-11-18T01:04:53;3.20;99.90
51567;DHT22;37657;53.182;5.638;2023-11-18T01:07:19;3.20;99.90
51567;DHT22;37657;53.182;5.638;2023-11-18T01:09:44;3.50;99.90
51567;DHT22;37657;53.182;5.638;2023-11-18T01:12:12;3.30;99.90
51567;DHT22;37657;53.182;5.638;2023-11-18T01:14:40;3.60;99.90
51567;DHT22;37657;53.182;5.638;2023-11-18T01:17:08;3.60;99.90
51567;DHT22;37657;53.182;5.638;2023-11-18T01:19:37;3.60;99.90
51567;DHT22;37657;53.182;5.638;2023-11-18T01:22:03;3.70;99.90
51567;DHT22;37657;53.182;5.638;2023-11-18T01:24:32;3.70;99.90
51567;DHT22;37657;53.182;5.638;2023-11-18T01:26:58;3.30;99.90
51567;DHT22;37657;53.182;5.638;2023-11-18T01:29:27;3.80;99.90
51567;DHT22;37657;53.182;5.638;2023-11-18T01:31:52;3.80;99.90
51567;DHT22;37657;53.182;5.638;2023-11-18T01:34:20;3.80;99.90
51567;DHT22;37657;53.182;5.638;2023-11-18T01:36:49;3.40;99.90
51567;DHT22;37657;53.182;5.638;2023-11-18T01:39:18;3.60;99.90
51567;DHT22;37657;53.182;5.638;2023-11-18T01:41:44;3.40;99.90
51567;DHT22;37657;53.182;5.638;2023-11-18T01:44:10;3.90;99.90
51567;DHT22;37657;53.182;5.638;2023-11-18T01:46:40;3.90;99.90
51567;DHT22;37657;53.182;5.638;2023-11-18T01:49:07;3.90;99.90
51567;DHT22;37657;53.182;5.638;2023-11-18T01:51:34;3.60;99.90
51567;DHT22;37657;53.182;5.638;2023-11-18T01:54:02;3.70;99.90
51567;DHT22;37657;53.182;5.638;2023-11-18T01:56:30;3.80;99.90
51567;DHT22;37657;53.182;5.638;2023-11-18T01:58:58;3.80;99.90
51567;DHT22;37657;53.182;5.638;2023-11-18T02:01:26;3.40;99.90
51567;DHT22;37657;53.182;5.638;2023-11-18T02:03:53;3.50;99.90
51567;DHT22;37657;53.182;5.638;2023-11-18T02:06:18;3.40;99.90
51567;DHT22;37657;53.182;5.638;2023-11-18T02:08:44;3.90;99.90
51567;DHT22;37657;53.182;5.638;2023-11-18T02:11:52;3.60;99.90
51567;DHT22;37657;53.182;5.638;2023-11-18T02:14:20;3.60;99.90
51567;DHT22;37657;53.182;5.638;2023-11-18T02:16:48;3.60;99.90
51567;DHT22;37657;53.182;5.638;2023-11-18T02:19:21;4.20;99.90
51567;DHT22;37657;53.182;5.638;2023-11-18T02:21:48;4.00;99.90
51567;DHT22;37657;53.182;5.638;2023-11-18T02:24:31;3.80;99.90
51567;DHT22;37657;53.182;5.638;2023-11-18T02:27:00;3.80;99.90
51567;DHT22;37657;53.182;5.638;2023-11-18T02:29:28;4.30;99.90
51567;DHT22;37657;53.182;5.638;2023-11-18T02:31:59;3.80;99.90
51567;DHT22;37657;53.182;5.638;2023-11-18T02:34:30;4.10;99.90
51567;DHT22;37657;53.182;5.638;2023-11-18T02:36:58;4.10;99.90
51567;DHT22;37657;53.182;5.638;2023-11-18T02:39:43;4.00;99.90
51567;DHT22;37657;53.182;5.638;2023-11-18T02:42:09;4.30;99.90
51567;DHT22;37657;53.182;5.638;2023-11-18T02:44:38;4.70;99.90
51567;DHT22;37657;53.182;5.638;2023-11-18T02:47:04;4.20;99.90
51567;DHT22;37657;53.182;5.638;2023-11-18T02:49:31;4.30;99.90
51567;DHT22;37657;53.182;5.638;2023-11-18T02:51:57;4.50;99.90
51567;DHT22;37657;53.182;5.638;2023-11-18T02:54:23;4.40;99.90
51567;DHT22;37657;53.182;5.638;2023-11-18T02:56:49;4.30;99.90
51567;DHT22;37657;53.182;5.638;2023-11-18T02:59:16;4.70;99.90
51567;DHT22;37657;53.182;5.638;2023-11-18T03:01:41;4.80;99.90
51567;DHT22;37657;53.182;5.638;2023-11-18T03:04:07;4.80;99.90
51567;DHT22;37657;53.182;5.638;2023-11-18T03:06:34;4.20;99.90
51567;DHT22;37657;53.182;5.638;2023-11-18T03:09:01;4.80;99.90
51567;DHT22;37657;53.182;5.638;2023-11-18T03:11:26;4.20;99.90
51567;DHT22;37657;53.182;5.638;2023-11-18T03:13:55;4.30;99.90
51567;DHT22;37657;53.182;5.638;2023-11-18T03:16:22;4.50;99.90
51567;DHT22;37657;53.182;5.638;2023-11-18T03:18:50;4.10;99.90
51567;DHT22;37657;53.182;5.638;2023-11-18T03:21:16;4.70;99.90
51567;DHT22;37657;53.182;5.638;2023-11-18T03:23:42;4.20;99.90
51567;DHT22;37657;53.182;5.638;2023-11-18T03:26:09;4.50;99.90
51567;DHT22;37657;53.182;5.638;2023-11-18T03:28:36;4.70;99.90
51567;DHT22;37657;53.182;5.638;2023-11-18T03:31:03;4.10;99.90
51567;DHT22;37657;53.182;5.638;2023-11-18T03:33:29;4.10;99.90
51567;DHT22;37657;53.182;5.638;2023-11-18T03:35:55;4.00;99.90
51567;DHT22;37657;53.182;5.638;2023-11-18T03:38:21;4.00;99.90
51567;DHT22;37657;53.182;5.638;2023-11-18T03:40:47;4.20;99.90
51567;DHT22;37657;53.182;5.638;2023-11-18T03:43:13;4.10;99.90
51567;DHT22;37657;53.182;5.638;2023-11-18T03:45:39;4.30;99.90
51567;DHT22;37657;53.182;5.638;2023-11-18T03:48:05;4.10;99.90
51567;DHT22;37657;53.182;5.638;2023-11-18T03:50:35;4.20;99.90
51567;DHT22;37657;53.182;5.638;2023-11-18T03:53:01;4.70;99.90
51567;DHT22;37657;53.182;5.638;2023-11-18T03:55:29;4.50;99.90
51567;DHT22;37657;53.182;5.638;2023-11-18T03:57:55;4.90;99.90
51567;DHT22;37657;53.182;5.638;2023-11-18T04:00:22;4.90;99.90
51567;DHT22;37657;53.182;5.638;2023-11-18T04:02:57;4.70;99.90
51567;DHT22;37657;53.182;5.638;2023-11-18T04:05:23;5.00;99.90
51567;DHT22;37657;53.182;5.638;2023-11-18T04:07:49;4.40;99.90
51567;DHT22;37657;53.182;5.638;2023-11-18T04:10:15;5.00;99.90
51567;DHT22;37657;53.182;5.638;2023-11-18T04:12:40;5.10;99.90
51567;DHT22;37657;53.182;5.638;2023-11-18T04:15:11;4.50;99.90
51567;DHT22;37657;53.182;5.638;2023-11-18T04:17:37;4.90;99.90
51567;DHT22;37657;53.182;5.638;2023-11-18T04:20:04;4.60;99.90
51567;DHT22;37657;53.182;5.638;2023-11-18T04:22:34;4.70;99.90
51567;DHT22;37657;53.182;5.638;2023-11-18T04:24:59;4.50;99.90
51567;DHT22;37657;53.182;5.638;2023-11-18T04:27:25;4.50;99.90
51567;DHT22;37657;53.182;5.638;2023-11-18T04:29:50;5.10;99.90
51567;DHT22;37657;53.182;5.638;2023-11-18T04:32:16;5.20;99.90
51567;DHT22;37657;53.182;5.638;2023-11-18T04:34:42;5.30;99.90
51567;DHT22;37657;53.182;5.638;2023-11-18T04:37:08;5.20;99.90
51567;DHT22;37657;53.182;5.638;2023-11-18T04:39:34;5.40;99.90
51567;DHT22;37657;53.182;5.638;2023-11-18T04:41:59;4.70;99.90
51567;DHT22;37657;53.182;5.638;2023-11-18T04:44:26;5.30;99.90
51567;DHT22;37657;53.182;5.638;2023-11-18T04:46:52;5.30;99.90
51567;DHT22;37657;53.182;5.638;2023-11-18T04:49:18;5.30;99.90
51567;DHT22;37657;53.182;5.638;2023-11-18T04:51:44;5.40;99.90
51567;DHT22;37657;53.182;5.638;2023-11-18T04:54:10;5.20;99.90
51567;DHT22;37657;53.182;5.638;2023-11-18T04:56:36;5.10;99.90
51567;DHT22;37657;53.182;5.638;2023-11-18T04:59:03;5.50;99.90
51567;DHT22;37657;53.182;5.638;2023-11-18T05:01:31;5.00;99.90
51567;DHT22;37657;53.182;5.638;2023-11-18T05:03:56;5.50;99.90
51567;DHT22;37657;53.182;5.638;2023-11-18T05:06:22;5.50;99.90
51567;DHT22;37657;53.182;5.638;2023-11-18T05:08:48;5.20;99.90
51567;DHT22;37657;53.182;5.638;2023-11-18T05:11:13;5.50;99.90
51567;DHT22;37657;53.182;5.638;2023-11-18T05:13:39;5.50;99.90
51567;DHT22;37657;53.182;5.638;2023-11-18T05:16:08;5.20;99.90
51567;DHT22;37657;53.182;5.638;2023-11-18T05:18:36;5.10;99.90
51567;DHT22;37657;53.182;5.638;2023-11-18T05:21:03;5.70;99.90
51567;DHT22;37657;53.182;5.638;2023-11-18T05:23:31;5.00;99.90
51567;DHT22;37657;53.182;5.638;2023-11-18T05:25:57;5.70;99.90
51567;DHT22;37657;53.182;5.638;2023-11-18T05:28:24;5.60;99.90
51567;DHT22;37657;53.182;5.638;2023-11-18T05:30:50;4.90;99.90
51567;DHT22;37657;53.182;5.638;2023-11-18T05:33:17;5.60;99.90
51567;DHT22;37657;53.182;5.638;2023-11-18T05:35:46;5.20;99.90
51567;DHT22;37657;53.182;5.638;2023-11-18T05:38:18;5.60;99.90
51567;DHT22;37657;53.182;5.638;2023-11-18T05:40:47;5.60;99.90
51567;DHT22;37657;53.182;5.638;2023-11-18T05:43:36;5.50;99.90
51567;DHT22;37657;53.182;5.638;2023-11-18T05:46:03;5.00;99.90
51567;DHT22;37657;53.182;5.638;2023-11-18T05:48:48;5.60;99.90
51567;DHT22;37657;53.182;5.638;2023-11-18T05:51:19;5.60;99.90
51567;DHT22;37657;53.182;5.638;2023-11-18T05:53:45;5.10;99.90
51567;DHT22;37657;53.182;5.638;2023-11-18T05:56:15;5.10;99.90
51567;DHT22;37657;53.182;5.638;2023-11-18T05:58:42;5.50;99.90
51567;DHT22;37657;53.182;5.638;2023-11-18T06:01:11;5.80;99.90
51567;DHT22;37657;53.182;5.638;2023-11-18T06:03:38;5.80;99.90
51567;DHT22;37657;53.182;5.638;2023-11-18T06:06:11;5.80;99.90
51567;DHT22;37657;53.182;5.638;2023-11-18T06:08:38;5.20;99.90
51567;DHT22;37657;53.182;5.638;2023-11-18T06:11:10;5.80;99.90
51567;DHT22;37657;53.182;5.638;2023-11-18T06:13:50;5.70;99.90
51567;DHT22;37657;53.182;5.638;2023-11-18T06:16:20;5.30;99.90
51567;DHT22;37657;53.182;5.638;2023-11-18T06:18:47;5.40;99.90
51567;DHT22;37657;53.182;5.638;2023-11-18T06:21:18;5.40;99.90
51567;DHT22;37657;53.182;5.638;2023-11-18T06:23:45;6.00;99.90
51567;DHT22;37657;53.182;5.638;2023-11-18T06:26:14;5.50;99.90
51567;DHT22;37657;53.182;5.638;2023-11-18T06:28:40;5.70;99.90
51567;DHT22;37657;53.182;5.638;2023-11-18T06:31:07;5.80;99.90
51567;DHT22;37657;53.182;5.638;2023-11-18T06:33:41;5.30;99.90
51567;DHT22;37657;53.182;5.638;2023-11-18T06:38:42;5.90;99.90
51567;DHT22;37657;53.182;5.638;2023-11-18T06:41:12;6.00;99.90
51567;DHT22;37657;53.182;5.638;2023-11-18T06:43:42;5.70;99.90
51567;DHT22;37657;53.182;5.638;2023-11-18T06:46:26;5.20;99.90
51567;DHT22;37657;53.182;5.638;2023-11-18T06:48:53;5.70;99.90
51567;DHT22;37657;53.182;5.638;2023-11-18T06:51:24;5.80;99.90
51567;DHT22;37657;53.182;5.638;2023-11-18T06:53:51;5.90;99.90
51567;DHT22;37657;53.182;5.638;2023-11-18T06:56:17;5.70;99.90
51567;DHT22;37657;53.182;5.638;2023-11-18T06:58:43;6.00;99.90
51567;DHT22;37657;53.182;5.638;2023-11-18T07:01:12;5.60;99.90
51567;DHT22;37657;53.182;5.638;2023-11-18T07:03:39;6.10;99.90
51567;DHT22;37657;53.182;5.638;2023-11-18T07:06:04;6.10;99.90
51567;DHT22;37657;53.182;5.638;2023-11-18T07:08:31;6.20;99.90
51567;DHT22;37657;53.182;5.638;2023-11-18T07:10:58;5.80;99.90
51567;DHT22;37657;53.182;5.638;2023-11-18T07:13:24;6.10;99.90
51567;DHT22;37657;53.182;5.638;2023-11-18T07:15:50;5.70;99.90
51567;DHT22;37657;53.182;5.638;2023-11-18T07:18:17;5.50;99.90
51567;DHT22;37657;53.182;5.638;2023-11-18T07:20:43;5.60;99.90
51567;DHT22;37657;53.182;5.638;2023-11-18T07:23:08;5.70;99.90
51567;DHT22;37657;53.182;5.638;2023-11-18T07:25:34;5.60;99.90
51567;DHT22;37657;53.182;5.638;2023-11-18T07:28:00;5.70;99.90
51567;DHT22;37657;53.182;5.638;2023-11-18T07:30:26;6.00;99.90
51567;DHT22;37657;53.182;5.638;2023-11-18T07:32:51;6.40;99.90
51567;DHT22;37657;53.182;5.638;2023-11-18T07:35:17;6.60;99.90
51567;DHT22;37657;53.182;5.638;2023-11-18T07:37:43;6.00;99.90
51567;DHT22;37657;53.182;5.638;2023-11-18T07:40:09;6.60;99.90
51567;DHT22;37657;53.182;5.638;2023-11-18T07:42:37;6.70;99.90
51567;DHT22;37657;53.182;5.638;2023-11-18T07:45:04;6.00;99.90
51567;DHT22;37657;53.182;5.638;2023-11-18T07:47:38;6.30;99.90
51567;DHT22;37657;53.182;5.638;2023-11-18T07:50:05;6.00;99.90
51567;DHT22;37657;53.182;5.638;2023-11-18T07:52:31;6.00;99.90
51567;DHT22;37657;53.182;5.638;2023-11-18T07:54:56;6.60;99.90
51567;DHT22;37657;53.182;5.638;2023-11-18T07:57:22;6.60;99.90
51567;DHT22;37657;53.182;5.638;2023-11-18T07:59:49;6.80;99.90
51567;DHT22;37657;53.182;5.638;2023-11-18T08:02:15;6.10;99.90
51567;DHT22;37657;53.182;5.638;2023-11-18T08:04:42;6.30;99.90
51567;DHT22;37657;53.182;5.638;2023-11-18T08:07:07;6.70;99.90
51567;DHT22;37657;53.182;5.638;2023-11-18T08:09:36;6.50;99.90
51567;DHT22;37657;53.182;5.638;2023-11-18T08:12:05;6.70;99.90
51567;DHT22;37657;53.182;5.638;2023-11-18T08:14:32;6.20;99.90
51567;DHT22;37657;53.182;5.638;2023-11-18T08:16:57;6.00;99.90
51567;DHT22;37657;53.182;5.638;2023-11-18T08:19:25;6.80;99.90
51567;DHT22;37657;53.182;5.638;2023-11-18T08:21:51;6.40;99.90
51567;DHT22;37657;53.182;5.638;2023-11-18T08:24:17;6.20;99.90
51567;DHT22;37657;53.182;5.638;2023-11-18T08:26:43;6.90;99.90
51567;DHT22;37657;53.182;5.638;2023-11-18T08:29:08;7.00;99.90
51567;DHT22;37657;53.182;5.638;2023-11-18T08:31:34;7.00;99.90
51567;DHT22;37657;53.182;5.638;2023-11-18T08:34:00;6.30;99.90
51567;DHT22;37657;53.182;5.638;2023-11-18T08:36:26;6.90;99.90
51567;DHT22;37657;53.182;5.638;2023-11-18T08:38:53;6.50;99.90
51567;DHT22;37657;53.182;5.638;2023-11-18T08:41:19;7.00;99.90
51567;DHT22;37657;53.182;5.638;2023-11-18T08:43:45;7.20;99.90
51567;DHT22;37657;53.182;5.638;2023-11-18T08:46:14;6.70;99.90
51567;DHT22;37657;53.182;5.638;2023-11-18T08:48:40;6.60;99.90
51567;DHT22;37657;53.182;5.638;2023-11-18T08:51:07;6.60;99.90
51567;DHT22;37657;53.182;5.638;2023-11-18T08:53:34;6.60;99.90
51567;DHT22;37657;53.182;5.638;2023-11-18T08:56:08;7.40;99.90
51567;DHT22;37657;53.182;5.638;2023-11-18T08:58:40;6.70;99.90
51567;DHT22;37657;53.182;5.638;2023-11-18T09:01:06;6.80;99.90
51567;DHT22;37657;53.182;5.638;2023-11-18T09:03:39;6.80;99.90
51567;DHT22;37657;53.182;5.638;2023-11-18T09:06:09;7.00;99.90
51567;DHT22;37657;53.182;5.638;2023-11-18T09:08:54;7.50;99.90
51567;DHT22;37657;53.182;5.638;2023-11-18T09:11:21;7.40;99.90
51567;DHT22;37657;53.182;5.638;2023-11-18T09:13:48;7.20;99.90
51567;DHT22;37657;53.182;5.638;2023-11-18T09:16:16;6.90;99.90
51567;DHT22;37657;53.182;5.638;2023-11-18T09:18:43;6.80;99.90
51567;DHT22;37657;53.182;5.638;2023-11-18T09:21:13;7.10;99.90
51567;DHT22;37657;53.182;5.638;2023-11-18T09:23:44;7.30;99.90
51567;DHT22;37657;53.182;5.638;2023-11-18T09:26:13;6.80;99.90
51567;DHT22;37657;53.182;5.638;2023-11-18T09:28:40;6.80;99.90
51567;DHT22;37657;53.182;5.638;2023-11-18T09:31:07;6.70;99.90
51567;DHT22;37657;53.182;5.638;2023-11-18T09:33:37;7.10;99.90
51567;DHT22;37657;53.182;5.638;2023-11-18T09:36:06;6.70;99.90
51567;DHT22;37657;53.182;5.638;2023-11-18T09:38:37;6.70;99.90
51567;DHT22;37657;53.182;5.638;2023-11-18T09:41:04;7.20;99.90
51567;DHT22;37657;53.182;5.638;2023-11-18T09:43:33;6.60;99.90
51567;DHT22;37657;53.182;5.638;2023-11-18T09:46:08;7.10;99.90
51567;DHT22;37657;53.182;5.638;2023-11-18T09:48:44;6.70;99.90
51567;DHT22;37657;53.182;5.638;2023-11-18T09:51:21;6.70;99.90
51567;DHT22;37657;53.182;5.638;2023-11-18T09:53:50;6.80;99.90
51567;DHT22;37657;53.182;5.638;2023-11-18T09:59:16;6.80;99.90
51567;DHT22;37657;53.182;5.638;2023-11-18T10:01:51;7.30;99.90
51567;DHT22;37657;53.182;5.638;2023-11-18T10:04:19;7.40;99.90
51567;DHT22;37657;53.182;5.638;2023-11-18T10:06:46;6.70;99.90
51567;DHT22;37657;53.182;5.638;2023-11-18T10:09:13;6.80;99.90
51567;DHT22;37657;53.182;5.638;2023-11-18T10:11:44;6.70;99.90
51567;DHT22;37657;53.182;5.638;2023-11-18T10:14:16;7.20;99.90
51567;DHT22;37657;53.182;5.638;2023-11-18T10:16:45;7.30;99.90
51567;DHT22;37657;53.182;5.638;2023-11-18T10:19:13;6.80;99.90
51567;DHT22;37657;53.182;5.638;2023-11-18T10:21:40;7.50;99.90
51567;DHT22;37657;53.182;5.638;2023-11-18T10:24:07;7.50;99.90
51567;DHT22;37657;53.182;5.638;2023-11-18T10:26:43;7.60;99.90
51567;DHT22;37657;53.182;5.638;2023-11-18T10:29:10;7.10;99.90
51567;DHT22;37657;53.182;5.638;2023-11-18T10:31:39;7.50;99.90
51567;DHT22;37657;53.182;5.638;2023-11-18T10:34:14;7.20;99.90
51567;DHT22;37657;53.182;5.638;2023-11-18T10:36:59;7.10;99.90
51567;DHT22;37657;53.182;5.638;2023-11-18T10:39:29;7.10;99.90
51567;DHT22;37657;53.182;5.638;2023-11-18T10:41:59;7.30;99.90
51567;DHT22;37657;53.182;5.638;2023-11-18T10:44:25;7.70;99.90
51567;DHT22;37657;53.182;5.638;2023-11-18T10:46:52;7.20;99.90
51567;DHT22;37657;53.182;5.638;2023-11-18T10:49:27;7.50;99.90
51567;DHT22;37657;53.182;5.638;2023-11-18T10:51:53;7.50;99.90
51567;DHT22;37657;53.182;5.638;2023-11-18T10:54:18;7.30;99.90
51567;DHT22;37657;53.182;5.638;2023-11-18T10:56:52;7.60;99.90
51567;DHT22;37657;53.182;5.638;2023-11-18T10:59:32;7.10;99.90
51567;DHT22;37657;53.182;5.638;2023-11-18T11:01:58;7.10;99.90
51567;DHT22;37657;53.182;5.638;2023-11-18T11:04:24;7.10;99.90
51567;DHT22;37657;53.182;5.638;2023-11-18T11:06:50;7.40;99.90
51567;DHT22;37657;53.182;5.638;2023-11-18T11:09:25;7.40;99.90
51567;DHT22;37657;53.182;5.638;2023-11-18T11:12:04;7.20;99.90
51567;DHT22;37657;53.182;5.638;2023-11-18T11:14:39;7.20;99.90
51567;DHT22;37657;53.182;5.638;2023-11-18T11:17:13;7.30;99.90
51567;DHT22;37657;53.182;5.638;2023-11-18T11:25:41;7.00;99.90
51567;DHT22;37657;53.182;5.638;2023-11-18T11:28:20;7.50;99.90
51567;DHT22;37657;53.182;5.638;2023-11-18T11:30:50;7.00;99.90
51567;DHT22;37657;53.182;5.638;2023-11-18T11:33:39;6.90;99.90
51567;DHT22;37657;53.182;5.638;2023-11-18T11:36:12;7.10;99.90
51567;DHT22;37657;53.182;5.638;2023-11-18T11:38:38;6.90;99.90
51567;DHT22;37657;53.182;5.638;2023-11-18T11:41:05;7.30;99.90
51567;DHT22;37657;53.182;5.638;2023-11-18T11:43:34;7.50;99.90
51567;DHT22;37657;53.182;5.638;2023-11-18T11:46:01;7.00;99.90
51567;DHT22;37657;53.182;5.638;2023-11-18T11:48:36;6.90;99.90
51567;DHT22;37657;53.182;5.638;2023-11-18T11:51:37;7.10;99.90
51567;DHT22;37657;53.182;5.638;2023-11-18T11:54:11;7.50;99.90
51567;DHT22;37657;53.182;5.638;2023-11-18T11:56:48;6.90;99.90
51567;DHT22;37657;53.182;5.638;2023-11-18T12:02:04;7.50;99.90
51567;DHT22;37657;53.182;5.638;2023-11-18T12:04:34;6.90;99.90
51567;DHT22;37657;53.182;5.638;2023-11-18T12:07:04;7.30;99.90
51567;DHT22;37657;53.182;5.638;2023-11-18T12:09:31;6.90;99.90
51567;DHT22;37657;53.182;5.638;2023-11-18T12:12:04;6.80;99.90
51567;DHT22;37657;53.182;5.638;2023-11-18T12:14:30;6.90;99.90
51567;DHT22;37657;53.182;5.638;2023-11-18T12:17:04;6.80;99.90
51567;DHT22;37657;53.182;5.638;2023-11-18T12:19:36;6.80;99.90
51567;DHT22;37657;53.182;5.638;2023-11-18T12:22:11;7.20;99.90
51567;DHT22;37657;53.182;5.638;2023-11-18T12:25:28;7.50;99.90
51567;DHT22;37657;53.182;5.638;2023-11-18T12:27:41;7.50;99.90
51567;DHT22;37657;53.182;5.638;2023-11-18T12:35:27;6.80;99.90
51567;DHT22;37657;53.182;5.638;2023-11-18T12:40:46;6.90;99.90
51567;DHT22;37657;53.182;5.638;2023-11-18T12:43:16;6.70;99.90
51567;DHT22;37657;53.182;5.638;2023-11-18T12:48:43;7.20;99.90
51567;DHT22;37657;53.182;5.638;2023-11-18T12:51:10;6.90;99.90
51567;DHT22;37657;53.182;5.638;2023-11-18T12:53:50;7.30;99.90
51567;DHT22;37657;53.182;5.638;2023-11-18T12:56:20;6.70;99.90
51567;DHT22;37657;53.182;5.638;2023-11-18T12:58:46;6.80;99.90
51567;DHT22;37657;53.182;5.638;2023-11-18T13:01:13;6.90;99.90
51567;DHT22;37657;53.182;5.638;2023-11-18T13:03:41;7.00;99.90
51567;DHT22;37657;53.182;5.638;2023-11-18T13:06:11;7.60;99.90
51567;DHT22;37657;53.182;5.638;2023-11-18T13:08:41;7.50;99.90
51567;DHT22;37657;53.182;5.638;2023-11-18T13:11:07;7.00;99.90
51567;DHT22;37657;53.182;5.638;2023-11-18T13:13:38;7.10;99.90
51567;DHT22;37657;53.182;5.638;2023-11-18T13:16:06;7.10;99.90
51567;DHT22;37657;53.182;5.638;2023-11-18T13:18:47;7.90;99.90
51567;DHT22;37657;53.182;5.638;2023-11-18T13:21:21;7.80;99.90
51567;DHT22;37657;53.182;5.638;2023-11-18T13:23:49;7.60;99.90
51567;DHT22;37657;53.182;5.638;2023-11-18T13:26:19;7.70;99.90
51567;DHT22;37657;53.182;5.638;2023-11-18T13:28:48;7.50;99.90
51567;DHT22;37657;53.182;5.638;2023-11-18T13:31:15;7.00;99.90
51567;DHT22;37657;53.182;5.638;2023-11-18T13:33:46;7.50;99.90
51567;DHT22;37657;53.182;5.638;2023-11-18T13:36:13;7.70;99.90
51567;DHT22;37657;53.182;5.638;2023-11-18T13:38:39;7.00;99.90
51567;DHT22;37657;53.182;5.638;2023-11-18T13:41:07;7.20;99.90
51567;DHT22;37657;53.182;5.638;2023-11-18T13:43:44;7.60;99.90
51567;DHT22;37657;53.182;5.638;2023-11-18T13:46:12;7.60;99.90
51567;DHT22;37657;53.182;5.638;2023-11-18T13:48:41;7.40;99.90
51567;DHT22;37657;53.182;5.638;2023-11-18T13:51:11;7.60;99.90
51567;DHT22;37657;53.182;5.638;2023-11-18T13:53:41;7.60;99.90
51567;DHT22;37657;53.182;5.638;2023-11-18T13:56:09;7.50;99.90
51567;DHT22;37657;53.182;5.638;2023-11-18T13:58:36;7.70;99.90
51567;DHT22;37657;53.182;5.638;2023-11-18T14:01:06;7.40;99.90
51567;DHT22;37657;53.182;5.638;2023-11-18T14:03:34;7.10;99.90
51567;DHT22;37657;53.182;5.638;2023-11-18T14:06:00;6.90;99.90
51567;DHT22;37657;53.182;5.638;2023-11-18T14:08:27;7.10;99.90
51567;DHT22;37657;53.182;5.638;2023-11-18T14:10:53;7.30;99.90
51567;DHT22;37657;53.182;5.638;2023-11-18T14:13:19;7.30;99.90
51567;DHT22;37657;53.182;5.638;2023-11-18T14:15:45;7.00;99.90
51567;DHT22;37657;53.182;5.638;2023-11-18T14:18:12;7.30;99.90
51567;DHT22;37657;53.182;5.638;2023-11-18T14:20:39;7.70;99.90
51567;DHT22;37657;53.182;5.638;2023-11-18T14:23:05;7.50;99.90
51567;DHT22;37657;53.182;5.638;2023-11-18T14:25:34;7.70;99.90
51567;DHT22;37657;53.182;5.638;2023-11-18T14:28:00;7.80;99.90
51567;DHT22;37657;53.182;5.638;2023-11-18T14:30:27;7.00;99.90
51567;DHT22;37657;53.182;5.638;2023-11-18T14:32:53;7.70;99.90
51567;DHT22;37657;53.182;5.638;2023-11-18T14:35:19;7.00;99.90
51567;DHT22;37657;53.182;5.638;2023-11-18T14:37:46;7.80;99.90
51567;DHT22;37657;53.182;5.638;2023-11-18T14:40:13;7.30;99.90
51567;DHT22;37657;53.182;5.638;2023-11-18T14:42:41;7.00;99.90
51567;DHT22;37657;53.182;5.638;2023-11-18T14:45:07;7.80;99.90
51567;DHT22;37657;53.182;5.638;2023-11-18T14:47:34;7.10;99.90
51567;DHT22;37657;53.182;5.638;2023-11-18T14:50:00;7.10;99.90
51567;DHT22;37657;53.182;5.638;2023-11-18T14:52:27;7.00;99.90
51567;DHT22;37657;53.182;5.638;2023-11-18T14:54:53;7.80;99.90
51567;DHT22;37657;53.182;5.638;2023-11-18T14:57:18;7.70;99.90
51567;DHT22;37657;53.182;5.638;2023-11-18T14:59:44;7.90;99.90
51567;DHT22;37657;53.182;5.638;2023-11-18T15:02:10;7.00;99.90
51567;DHT22;37657;53.182;5.638;2023-11-18T15:04:36;7.10;99.90
51567;DHT22;37657;53.182;5.638;2023-11-18T15:07:01;7.20;99.90
51567;DHT22;37657;53.182;5.638;2023-11-18T15:09:27;7.00;99.90
51567;DHT22;37657;53.182;5.638;2023-11-18T15:11:57;7.90;99.90
51567;DHT22;37657;53.182;5.638;2023-11-18T15:14:24;7.10;99.90
51567;DHT22;37657;53.182;5.638;2023-11-18T15:16:53;7.20;99.90
51567;DHT22;37657;53.182;5.638;2023-11-18T15:19:19;8.00;99.90
51567;DHT22;37657;53.182;5.638;2023-11-18T15:21:45;7.40;99.90
51567;DHT22;37657;53.182;5.638;2023-11-18T15:24:11;7.80;99.90
51567;DHT22;37657;53.182;5.638;2023-11-18T15:26:39;7.20;99.90
51567;DHT22;37657;53.182;5.638;2023-11-18T15:29:05;8.10;99.90
51567;DHT22;37657;53.182;5.638;2023-11-18T15:31:42;7.40;99.90
51567;DHT22;37657;53.182;5.638;2023-11-18T15:34:08;7.50;99.90
51567;DHT22;37657;53.182;5.638;2023-11-18T15:36:33;8.00;99.90
51567;DHT22;37657;53.182;5.638;2023-11-18T15:38:59;7.30;99.90
51567;DHT22;37657;53.182;5.638;2023-11-18T15:41:29;7.70;99.90
51567;DHT22;37657;53.182;5.638;2023-11-18T15:43:55;8.20;99.90
51567;DHT22;37657;53.182;5.638;2023-11-18T15:46:21;8.10;99.90
51567;DHT22;37657;53.182;5.638;2023-11-18T15:48:46;8.20;99.90
51567;DHT22;37657;53.182;5.638;2023-11-18T15:51:13;7.90;99.90
51567;DHT22;37657;53.182;5.638;2023-11-18T15:53:41;8.20;99.90
51567;DHT22;37657;53.182;5.638;2023-11-18T15:56:08;7.70;99.90
51567;DHT22;37657;53.182;5.638;2023-11-18T15:58:36;7.30;99.90
51567;DHT22;37657;53.182;5.638;2023-11-18T16:01:03;7.90;99.90
51567;DHT22;37657;53.182;5.638;2023-11-18T16:03:28;7.30;99.90
51567;DHT22;37657;53.182;5.638;2023-11-18T16:05:54;7.30;99.90
51567;DHT22;37657;53.182;5.638;2023-11-18T16:08:20;7.50;99.90
51567;DHT22;37657;53.182;5.638;2023-11-18T16:10:46;7.60;99.90
51567;DHT22;37657;53.182;5.638;2023-11-18T16:13:12;8.30;99.90
51567;DHT22;37657;53.182;5.638;2023-11-18T16:18:38;8.00;99.90
51567;DHT22;37657;53.182;5.638;2023-11-18T16:21:04;7.50;99.90